Time,TemperatureF,DewpointF,PressureIn,WindDirection,WindDirectionDegrees,WindSpeedMPH,WindSpeedGustMPH,Humidity,HourlyPrecipIn,Conditions,Clouds,dailyrainin,SoftwareType,DateUTC
2013-03-08 00:04:00,36.7,32.5,28.66,NW,315,4.0,4.0,85,0.00,,,0.00,meteohub,2013-03-08 06:04:00,
2013-03-08 00:09:00,36.9,32.7,28.66,East,90,4.0,4.0,85,0.00,,,0.00,meteohub,2013-03-08 06:09:00,
2013-03-08 00:14:00,36.7,32.5,28.66,SE,135,3.0,4.0,85,0.00,,,0.00,meteohub,2013-03-08 06:14:00,
2013-03-08 00:19:00,36.7,32.5,28.66,East,90,3.0,5.0,85,0.00,,,0.00,meteohub,2013-03-08 06:19:00,
2013-03-08 00:25:00,36.7,32.5,28.66,East,90,3.0,5.0,85,0.00,,,0.00,meteohub,2013-03-08 06:25:00,
2013-03-08 00:30:00,36.7,32.5,28.66,East,90,4.0,4.0,85,0.00,,,0.00,meteohub,2013-03-08 06:30:00,
2013-03-08 00:35:00,36.7,32.5,28.66,SE,135,3.0,6.0,85,0.00,,,0.00,meteohub,2013-03-08 06:35:00,
2013-03-08 00:40:00,36.7,32.5,28.67,East,90,4.0,6.0,85,0.00,,,0.00,meteohub,2013-03-08 06:40:00,
2013-03-08 00:45:00,36.7,32.5,28.66,East,90,4.0,5.0,85,0.00,,,0.00,meteohub,2013-03-08 06:45:00,
2013-03-08 00:50:00,36.7,32.5,28.67,SE,135,4.0,5.0,85,0.00,,,0.00,meteohub,2013-03-08 06:50:00,
2013-03-08 00:55:00,36.7,32.5,28.67,SE,135,4.0,4.0,85,0.00,,,0.00,meteohub,2013-03-08 06:55:00,
2013-03-08 01:00:00,36.7,32.5,28.67,SE,135,2.0,4.0,85,0.00,,,0.00,meteohub,2013-03-08 07:00:00,
2013-03-08 01:05:00,36.7,32.5,28.67,SE,135,2.0,4.0,85,0.00,,,0.00,meteohub,2013-03-08 07:05:00,
2013-03-08 01:10:00,36.7,32.5,28.67,West,270,3.0,4.0,85,0.00,,,0.00,meteohub,2013-03-08 07:10:00,
2013-03-08 01:15:00,36.5,32.4,28.67,East,90,4.0,4.0,85,0.00,,,0.00,meteohub,2013-03-08 07:15:00,
2013-03-08 01:20:00,36.5,32.4,28.67,East,90,3.0,4.0,85,0.00,,,0.00,meteohub,2013-03-08 07:20:00,
2013-03-08 01:25:00,36.5,32.4,28.67,NW,315,4.0,4.0,85,0.00,,,0.00,meteohub,2013-03-08 07:25:00,
2013-03-08 01:30:00,36.5,32.4,28.68,East,90,2.0,4.0,85,0.00,,,0.00,meteohub,2013-03-08 07:30:00,
2013-03-08 01:35:00,36.5,32.4,28.68,SE,135,3.0,4.0,85,0.00,,,0.00,meteohub,2013-03-08 07:35:00,
2013-03-08 01:40:00,36.5,32.4,28.68,NW,315,4.0,4.0,85,0.00,,,0.00,meteohub,2013-03-08 07:40:00,
2013-03-08 01:45:00,36.7,32.5,28.68,West,270,3.0,4.0,85,0.00,,,0.00,meteohub,2013-03-08 07:45:00,
2013-03-08 01:50:00,36.7,32.5,28.68,East,90,3.0,4.0,85,0.00,,,0.00,meteohub,2013-03-08 07:50:00,
2013-03-08 01:55:00,36.7,32.5,28.67,East,90,2.0,4.0,85,0.00,,,0.00,meteohub,2013-03-08 07:55:00,
2013-03-08 02:00:00,36.7,32.5,28.67,East,90,3.0,6.0,85,0.00,,,0.00,meteohub,2013-03-08 08:00:00,
2013-03-08 02:05:00,36.9,32.5,28.67,SE,135,4.0,6.0,84,0.00,,,0.00,meteohub,2013-03-08 08:05:00,
2013-03-08 02:10:00,37.2,32.9,28.67,SE,135,4.0,6.0,84,0.00,,,0.00,meteohub,2013-03-08 08:10:00,
2013-03-08 02:16:00,37.4,32.7,28.67,SE,135,4.0,5.0,83,0.00,,,0.00,meteohub,2013-03-08 08:16:00,
2013-03-08 02:21:00,37.6,32.9,28.67,East,90,4.0,5.0,83,0.00,,,0.00,meteohub,2013-03-08 08:21:00,
2013-03-08 02:26:00,37.8,33.1,28.66,SE,135,4.0,5.0,83,0.00,,,0.00,meteohub,2013-03-08 08:26:00,
2013-03-08 02:31:00,38.1,33.1,28.66,South,180,4.0,7.0,82,0.00,,,0.00,meteohub,2013-03-08 08:31:00,
2013-03-08 02:36:00,38.1,33.1,28.66,North,0,4.0,7.0,82,0.00,,,0.00,meteohub,2013-03-08 08:36:00,
2013-03-08 02:41:00,38.5,33.4,28.67,SE,135,6.0,7.0,82,0.00,,,0.00,meteohub,2013-03-08 08:41:00,
2013-03-08 02:46:00,38.7,33.3,28.67,South,180,6.0,6.0,81,0.00,,,0.00,meteohub,2013-03-08 08:46:00,
2013-03-08 02:51:00,39.2,33.8,28.67,SW,225,4.0,10.0,81,0.00,,,0.00,meteohub,2013-03-08 08:51:00,
2013-03-08 02:56:00,39.2,33.6,28.66,SE,135,6.0,10.0,80,0.00,,,0.00,meteohub,2013-03-08 08:56:00,
2013-03-08 03:01:00,39.6,34.0,28.67,SE,135,7.0,10.0,80,0.00,,,0.00,meteohub,2013-03-08 09:01:00,
2013-03-08 03:06:00,39.7,34.2,28.67,WSW,248,4.0,7.0,80,0.00,,,0.00,meteohub,2013-03-08 09:06:00,
2013-03-08 03:11:00,39.7,34.2,28.67,South,180,5.0,7.0,80,0.00,,,0.00,meteohub,2013-03-08 09:11:00,
2013-03-08 03:16:00,39.7,34.2,28.67,SE,135,4.0,7.0,80,0.00,,,0.00,meteohub,2013-03-08 09:16:00,
2013-03-08 03:21:00,39.7,34.2,28.66,North,0,4.0,6.0,80,0.00,,,0.00,meteohub,2013-03-08 09:21:00,
2013-03-08 03:26:00,39.7,34.2,28.66,South,180,5.0,7.0,80,0.00,,,0.00,meteohub,2013-03-08 09:26:00,
2013-03-08 03:31:00,39.7,34.2,28.66,South,180,5.0,7.0,80,0.00,,,0.00,meteohub,2013-03-08 09:31:00,
2013-03-08 03:36:00,39.9,34.3,28.66,SE,135,8.0,8.0,80,0.00,,,0.00,meteohub,2013-03-08 09:36:00,
2013-03-08 03:41:00,39.9,34.3,28.66,North,0,4.0,8.0,80,0.00,,,0.00,meteohub,2013-03-08 09:41:00,
2013-03-08 03:46:00,40.1,34.5,28.66,SW,225,8.0,8.0,80,0.00,,,0.00,meteohub,2013-03-08 09:46:00,
2013-03-08 03:52:00,40.3,34.5,28.65,East,90,4.0,8.0,80,0.00,,,0.00,meteohub,2013-03-08 09:52:00,
2013-03-08 03:57:00,40.1,34.5,28.66,South,180,7.0,8.0,80,0.00,,,0.00,meteohub,2013-03-08 09:57:00,
2013-03-08 04:02:00,40.1,34.7,28.66,SW,225,8.0,8.0,81,0.00,,,0.00,meteohub,2013-03-08 10:02:00,
2013-03-08 04:07:00,40.5,34.7,28.66,South,180,6.0,8.0,80,0.00,,,0.00,meteohub,2013-03-08 10:07:00,
2013-03-08 04:12:00,40.6,34.9,28.66,SE,135,8.0,9.0,80,0.00,,,0.00,meteohub,2013-03-08 10:12:00,
2013-03-08 04:17:00,40.6,34.9,28.65,SE,135,10.0,10.0,80,0.00,,,0.00,meteohub,2013-03-08 10:17:00,
2013-03-08 04:22:00,40.6,34.9,28.64,East,90,6.0,10.0,80,0.00,,,0.00,meteohub,2013-03-08 10:22:00,
2013-03-08 04:27:00,40.5,34.7,28.64,SW,225,5.0,10.0,80,0.00,,,0.00,meteohub,2013-03-08 10:27:00,
2013-03-08 04:32:00,40.5,35.1,28.64,East,90,6.0,10.0,81,0.00,,,0.00,meteohub,2013-03-08 10:32:00,
2013-03-08 04:37:00,40.3,34.9,28.65,East,90,5.0,11.0,81,0.00,,,0.00,meteohub,2013-03-08 10:37:00,
2013-03-08 04:42:00,40.3,34.9,28.64,East,90,7.0,11.0,81,0.00,,,0.00,meteohub,2013-03-08 10:42:00,
2013-03-08 04:47:00,39.9,34.9,28.64,SE,135,4.0,11.0,82,0.00,,,0.00,meteohub,2013-03-08 10:47:00,
2013-03-08 04:52:00,39.7,34.7,28.64,South,180,4.0,8.0,82,0.00,,,0.00,meteohub,2013-03-08 10:52:00,
2013-03-08 04:57:00,39.7,35.1,28.64,NW,315,6.0,8.0,83,0.00,,,0.00,meteohub,2013-03-08 10:57:00,
2013-03-08 05:02:00,39.7,35.1,28.64,East,90,5.0,8.0,83,0.00,,,0.00,meteohub,2013-03-08 11:02:00,
2013-03-08 05:07:00,39.9,35.2,28.64,East,90,4.0,9.0,83,0.00,,,0.00,meteohub,2013-03-08 11:07:00,
2013-03-08 05:12:00,39.9,35.2,28.64,South,180,7.0,9.0,83,0.00,,,0.00,meteohub,2013-03-08 11:12:00,
2013-03-08 05:17:00,39.9,35.2,28.65,SE,135,3.0,9.0,83,0.00,,,0.00,meteohub,2013-03-08 11:17:00,
2013-03-08 05:22:00,40.1,35.4,28.65,NE,45,8.0,8.0,83,0.00,,,0.00,meteohub,2013-03-08 11:22:00,
2013-03-08 05:27:00,40.1,35.4,28.66,South,180,6.0,8.0,83,0.00,,,0.00,meteohub,2013-03-08 11:27:00,
2013-03-08 05:32:00,40.3,35.6,28.66,NW,315,2.0,8.0,83,0.00,,,0.00,meteohub,2013-03-08 11:32:00,
2013-03-08 05:37:00,40.3,35.6,28.66,NW,315,3.0,8.0,83,0.00,,,0.00,meteohub,2013-03-08 11:37:00,
2013-03-08 05:42:00,40.3,35.6,28.66,East,90,5.0,8.0,83,0.00,,,0.00,meteohub,2013-03-08 11:42:00,
2013-03-08 05:48:00,40.1,35.4,28.67,SE,135,4.0,9.0,83,0.00,,,0.00,meteohub,2013-03-08 11:48:00,
2013-03-08 05:53:00,39.9,35.2,28.66,SE,135,3.0,10.0,83,0.00,,,0.00,meteohub,2013-03-08 11:53:00,
2013-03-08 05:58:00,39.9,35.4,28.66,SW,225,6.0,10.0,84,0.00,,,0.00,meteohub,2013-03-08 11:58:00,
2013-03-08 06:03:00,39.9,35.4,28.66,South,180,2.0,10.0,84,0.00,,,0.00,meteohub,2013-03-08 12:03:00,
2013-03-08 06:08:00,40.1,35.6,28.67,WSW,248,4.0,8.0,84,0.00,,,0.00,meteohub,2013-03-08 12:08:00,
2013-03-08 06:13:00,39.9,35.4,28.66,WNW,293,4.0,8.0,84,0.00,,,0.00,meteohub,2013-03-08 12:13:00,
2013-03-08 06:18:00,39.7,35.6,28.66,SE,135,4.0,8.0,85,0.00,,,0.00,meteohub,2013-03-08 12:18:00,
2013-03-08 06:23:00,39.7,35.6,28.66,South,180,5.0,8.0,85,0.00,,,0.00,meteohub,2013-03-08 12:23:00,
2013-03-08 06:28:00,39.7,35.6,28.66,SE,135,4.0,7.0,85,0.00,,,0.00,meteohub,2013-03-08 12:28:00,
2013-03-08 06:33:00,39.7,35.6,28.66,SE,135,6.0,7.0,85,0.00,,,0.00,meteohub,2013-03-08 12:33:00,
2013-03-08 06:38:00,39.7,35.6,28.66,WNW,293,4.0,7.0,85,0.00,,,0.00,meteohub,2013-03-08 12:38:00,
2013-03-08 06:43:00,39.6,35.8,28.66,NNE,23,9.0,9.0,86,0.00,,,0.00,meteohub,2013-03-08 12:43:00,
2013-03-08 06:48:00,39.6,35.8,28.65,SE,135,4.0,9.0,86,0.00,,,0.00,meteohub,2013-03-08 12:48:00,
2013-03-08 06:53:00,39.7,36.0,28.65,SE,135,5.0,9.0,86,0.00,,,0.00,meteohub,2013-03-08 12:53:00,
2013-03-08 06:58:00,39.9,35.8,28.66,South,180,5.0,9.0,85,0.00,,,0.00,meteohub,2013-03-08 12:58:00,
2013-03-08 07:03:00,40.5,36.0,28.65,West,270,6.0,8.0,84,0.00,,,0.00,meteohub,2013-03-08 13:03:00,
2013-03-08 07:08:00,40.5,36.0,28.65,North,0,3.0,8.0,84,0.00,,,0.00,meteohub,2013-03-08 13:08:00,
2013-03-08 07:13:00,40.3,36.1,28.65,SE,135,7.0,8.0,85,0.00,,,0.00,meteohub,2013-03-08 13:13:00,
2013-03-08 07:18:00,40.6,36.5,28.65,South,180,9.0,9.0,85,0.00,,,0.00,meteohub,2013-03-08 13:18:00,
2013-03-08 07:23:00,41.2,36.5,28.65,SE,135,8.0,10.0,83,0.00,,,0.00,meteohub,2013-03-08 13:23:00,
2013-03-08 07:28:00,42.1,37.0,28.66,NW,315,8.0,10.0,82,0.00,,,0.00,meteohub,2013-03-08 13:28:00,
2013-03-08 07:34:00,43.0,37.2,28.66,South,180,3.0,10.0,80,0.00,,,0.00,meteohub,2013-03-08 13:34:00,
2013-03-08 07:39:00,43.3,37.2,28.65,SE,135,6.0,10.0,79,0.00,,,0.00,meteohub,2013-03-08 13:39:00,
2013-03-08 07:44:00,42.8,36.7,28.66,SW,225,8.0,10.0,79,0.00,,,0.00,meteohub,2013-03-08 13:44:00,
2013-03-08 07:49:00,43.2,37.0,28.66,North,0,8.0,10.0,79,0.00,,,0.00,meteohub,2013-03-08 13:49:00,
2013-03-08 07:54:00,43.5,37.0,28.66,WNW,293,5.0,10.0,78,0.00,,,0.00,meteohub,2013-03-08 13:54:00,
2013-03-08 07:59:00,44.2,37.6,28.66,South,180,5.0,10.0,77,0.00,,,0.00,meteohub,2013-03-08 13:59:00,
2013-03-08 08:04:00,44.6,37.6,28.66,North,0,8.0,10.0,76,0.00,,,0.00,meteohub,2013-03-08 14:04:00,
2013-03-08 08:09:00,45.0,37.9,28.66,SW,225,5.0,10.0,76,0.00,,,0.00,meteohub,2013-03-08 14:09:00,
2013-03-08 08:14:00,44.6,37.2,28.66,NNW,338,7.0,9.0,75,0.00,,,0.00,meteohub,2013-03-08 14:14:00,
2013-03-08 08:19:00,44.6,37.6,28.66,SE,135,7.0,10.0,76,0.00,,,0.00,meteohub,2013-03-08 14:19:00,
2013-03-08 08:24:00,44.6,37.6,28.66,SE,135,8.0,10.0,76,0.00,,,0.00,meteohub,2013-03-08 14:24:00,
2013-03-08 08:29:00,44.6,37.6,28.66,West,270,4.0,10.0,76,0.00,,,0.00,meteohub,2013-03-08 14:29:00,
2013-03-08 08:34:00,44.6,37.6,28.67,South,180,11.0,11.0,76,0.00,,,0.00,meteohub,2013-03-08 14:34:00,
2013-03-08 08:39:00,44.4,37.4,28.67,SE,135,8.0,9.0,76,0.00,,,0.00,meteohub,2013-03-08 14:39:00,
2013-03-08 08:44:00,44.2,37.6,28.66,SW,225,4.0,11.0,77,0.00,,,0.00,meteohub,2013-03-08 14:44:00,
2013-03-08 08:49:00,44.6,37.6,28.66,South,180,8.0,11.0,76,0.00,,,0.00,meteohub,2013-03-08 14:49:00,
2013-03-08 08:54:00,44.8,37.9,28.66,SE,135,4.0,11.0,77,0.00,,,0.00,meteohub,2013-03-08 14:54:00,
2013-03-08 08:59:00,45.0,37.9,28.66,SE,135,8.0,9.0,76,0.00,,,0.00,meteohub,2013-03-08 14:59:00,
2013-03-08 09:05:00,45.0,37.9,28.66,SE,135,8.0,11.0,76,0.00,,,0.00,meteohub,2013-03-08 15:05:00,
2013-03-08 09:10:00,45.0,37.9,28.65,SE,135,6.0,11.0,76,0.00,,,0.00,meteohub,2013-03-08 15:10:00,
2013-03-08 09:15:00,45.1,37.9,28.65,SE,135,7.0,11.0,76,0.00,,,0.00,meteohub,2013-03-08 15:15:00,
2013-03-08 09:20:00,45.0,37.9,28.65,NNW,338,8.0,11.0,76,0.00,,,0.00,meteohub,2013-03-08 15:20:00,
2013-03-08 09:25:00,46.2,38.5,28.65,WNW,293,9.0,11.0,74,0.00,,,0.00,meteohub,2013-03-08 15:25:00,
2013-03-08 09:30:00,47.5,38.8,28.65,SE,135,12.0,12.0,72,0.00,,,0.00,meteohub,2013-03-08 15:30:00,
2013-03-08 09:35:00,48.4,39.4,28.65,SE,135,4.0,12.0,71,0.00,,,0.00,meteohub,2013-03-08 15:35:00,
2013-03-08 09:40:00,48.9,39.6,28.65,South,180,8.0,12.0,70,0.00,,,0.00,meteohub,2013-03-08 15:40:00,
2013-03-08 09:45:00,49.5,39.7,28.65,SE,135,8.0,12.0,69,0.00,,,0.00,meteohub,2013-03-08 15:45:00,
2013-03-08 09:50:00,49.6,39.6,28.64,SE,135,5.0,11.0,68,0.00,,,0.00,meteohub,2013-03-08 15:50:00,
2013-03-08 09:55:00,51.1,40.5,28.65,South,180,5.0,11.0,67,0.00,,,0.00,meteohub,2013-03-08 15:55:00,
2013-03-08 10:00:00,51.8,40.8,28.65,SE,135,7.0,10.0,66,0.00,,,0.00,meteohub,2013-03-08 16:00:00,
2013-03-08 10:05:00,52.0,40.6,28.65,South,180,7.0,10.0,65,0.00,,,0.00,meteohub,2013-03-08 16:05:00,
2013-03-08 10:10:00,52.0,40.1,28.65,SE,135,8.0,10.0,64,0.00,,,0.00,meteohub,2013-03-08 16:10:00,
2013-03-08 10:15:00,51.8,40.5,28.65,West,270,6.0,14.0,65,0.00,,,0.00,meteohub,2013-03-08 16:15:00,
2013-03-08 10:20:00,53.2,41.4,28.65,SW,225,4.0,14.0,64,0.00,,,0.00,meteohub,2013-03-08 16:20:00,
2013-03-08 10:25:00,53.8,41.5,28.65,SE,135,6.0,14.0,63,0.00,,,0.00,meteohub,2013-03-08 16:25:00,
2013-03-08 10:30:00,54.1,41.4,28.64,WNW,293,4.0,9.0,62,0.00,,,0.00,meteohub,2013-03-08 16:30:00,
2013-03-08 10:35:00,54.5,41.4,28.65,South,180,9.0,9.0,61,0.00,,,0.00,meteohub,2013-03-08 16:35:00,
2013-03-08 10:40:00,54.7,41.9,28.64,SE,135,5.0,9.0,62,0.00,,,0.00,meteohub,2013-03-08 16:40:00,
2013-03-08 10:45:00,53.8,41.0,28.64,SW,225,11.0,12.0,62,0.00,,,0.00,meteohub,2013-03-08 16:45:00,
2013-03-08 10:51:00,54.1,41.9,28.63,SE,135,7.0,12.0,63,0.00,,,0.00,meteohub,2013-03-08 16:51:00,
2013-03-08 10:56:00,54.0,41.7,28.63,SE,135,9.0,12.0,63,0.00,,,0.00,meteohub,2013-03-08 16:56:00,
2013-03-08 11:01:00,54.9,42.4,28.64,South,180,8.0,12.0,63,0.00,,,0.00,meteohub,2013-03-08 17:01:00,
2013-03-08 11:06:00,55.6,42.8,28.63,NNW,338,8.0,14.0,62,0.00,,,0.00,meteohub,2013-03-08 17:06:00,
2013-03-08 11:11:00,55.2,42.8,28.63,West,270,4.0,14.0,63,0.00,,,0.00,meteohub,2013-03-08 17:11:00,
2013-03-08 11:16:00,55.9,42.6,28.63,SW,225,10.0,11.0,61,0.00,,,0.00,meteohub,2013-03-08 17:16:00,
2013-03-08 11:21:00,57.0,43.3,28.63,SE,135,4.0,11.0,60,0.00,,,0.00,meteohub,2013-03-08 17:21:00,
2013-03-08 11:26:00,58.8,44.1,28.63,South,180,5.0,11.0,58,0.00,,,0.00,meteohub,2013-03-08 17:26:00,
2013-03-08 11:31:00,58.6,43.5,28.63,WNW,293,9.0,11.0,57,0.00,,,0.00,meteohub,2013-03-08 17:31:00,
2013-03-08 11:36:00,58.3,44.1,28.63,North,0,8.0,11.0,59,0.00,,,0.00,meteohub,2013-03-08 17:36:00,
2013-03-08 11:41:00,58.8,44.6,28.63,SE,135,4.0,12.0,59,0.00,,,0.00,meteohub,2013-03-08 17:41:00,
2013-03-08 11:46:00,58.3,44.1,28.62,NNW,338,8.0,12.0,59,0.00,,,0.00,meteohub,2013-03-08 17:46:00,
2013-03-08 11:51:00,57.4,43.7,28.62,East,90,11.0,12.0,60,0.00,,,0.00,meteohub,2013-03-08 17:51:00,
2013-03-08 11:56:00,57.7,43.9,28.63,NE,45,7.0,11.0,60,0.00,,,0.00,meteohub,2013-03-08 17:56:00,
2013-03-08 12:01:00,58.3,45.3,28.62,South,180,4.0,11.0,62,0.00,,,0.00,meteohub,2013-03-08 18:01:00,
2013-03-08 12:06:00,57.7,44.4,28.62,NW,315,8.0,11.0,61,0.00,,,0.00,meteohub,2013-03-08 18:06:00,
2013-03-08 12:11:00,59.4,45.5,28.63,NE,45,7.0,11.0,60,0.00,,,0.00,meteohub,2013-03-08 18:11:00,
2013-03-08 12:16:00,59.5,45.1,28.63,East,90,9.0,11.0,59,0.00,,,0.00,meteohub,2013-03-08 18:16:00,
2013-03-08 12:21:00,59.4,45.5,28.63,West,270,13.0,13.0,60,0.00,,,0.00,meteohub,2013-03-08 18:21:00,
2013-03-08 12:26:00,59.0,45.5,28.63,NNE,23,9.0,13.0,61,0.00,,,0.00,meteohub,2013-03-08 18:26:00,
2013-03-08 12:31:00,59.9,46.4,28.62,South,180,7.0,13.0,61,0.00,,,0.00,meteohub,2013-03-08 18:31:00,
2013-03-08 12:37:00,59.5,46.0,28.62,South,180,8.0,13.0,61,0.00,,,0.00,meteohub,2013-03-08 18:37:00,
2013-03-08 12:42:00,59.0,45.5,28.62,South,180,7.0,10.0,61,0.00,,,0.00,meteohub,2013-03-08 18:42:00,
2013-03-08 12:47:00,58.5,45.9,28.61,South,180,8.0,11.0,63,0.00,,,0.00,meteohub,2013-03-08 18:47:00,
2013-03-08 12:52:00,58.6,46.6,28.61,South,180,12.0,12.0,64,0.00,,,0.00,meteohub,2013-03-08 18:52:00,
2013-03-08 12:57:00,58.6,46.6,28.61,South,180,10.0,12.0,64,0.00,,,0.00,meteohub,2013-03-08 18:57:00,
2013-03-08 13:02:00,58.5,45.9,28.60,South,180,8.0,12.0,63,0.00,,,0.00,meteohub,2013-03-08 19:02:00,
2013-03-08 13:07:00,57.9,46.2,28.60,SE,135,7.0,12.0,65,0.00,,,0.00,meteohub,2013-03-08 19:07:00,
2013-03-08 13:12:00,58.1,46.8,28.60,South,180,9.0,11.0,66,0.00,,,0.00,meteohub,2013-03-08 19:12:00,
2013-03-08 13:17:00,58.1,46.4,28.60,East,90,7.0,11.0,65,0.00,,,0.00,meteohub,2013-03-08 19:17:00,
2013-03-08 13:22:00,58.8,47.1,28.59,NW,315,10.0,11.0,65,0.00,,,0.00,meteohub,2013-03-08 19:22:00,
2013-03-08 13:27:00,58.8,47.1,28.58,South,180,11.0,11.0,65,0.00,,,0.00,meteohub,2013-03-08 19:27:00,
2013-03-08 13:32:00,58.5,47.1,28.58,SE,135,11.0,11.0,66,0.00,,,0.00,meteohub,2013-03-08 19:32:00,
2013-03-08 13:37:00,58.3,46.9,28.58,East,90,14.0,14.0,66,0.00,,,0.00,meteohub,2013-03-08 19:37:00,
2013-03-08 13:42:00,57.9,46.6,28.58,SE,135,14.0,16.0,66,0.00,,,0.00,meteohub,2013-03-08 19:42:00,
2013-03-08 13:47:00,58.1,47.1,28.58,SE,135,6.0,16.0,67,0.00,,,0.00,meteohub,2013-03-08 19:47:00,
2013-03-08 13:52:00,58.3,46.9,28.58,South,180,5.0,16.0,66,0.00,,,0.00,meteohub,2013-03-08 19:52:00,
2013-03-08 13:57:00,57.9,46.9,28.58,SE,135,7.0,14.0,67,0.00,,,0.00,meteohub,2013-03-08 19:57:00,
2013-03-08 14:02:00,57.4,46.6,28.57,South,180,11.0,11.0,67,0.00,,,0.00,meteohub,2013-03-08 20:02:00,
2013-03-08 14:07:00,57.2,46.8,28.57,SE,135,6.0,11.0,68,0.00,,,0.00,meteohub,2013-03-08 20:07:00,
2013-03-08 14:12:00,56.7,46.2,28.57,East,90,11.0,12.0,68,0.00,,,0.00,meteohub,2013-03-08 20:12:00,
2013-03-08 14:18:00,56.7,46.6,28.57,East,90,9.0,12.0,69,0.00,,,0.00,meteohub,2013-03-08 20:18:00,
2013-03-08 14:23:00,56.3,45.9,28.57,NW,315,11.0,12.0,68,0.00,,,0.00,meteohub,2013-03-08 20:23:00,
2013-03-08 14:28:00,55.9,45.9,28.57,SE,135,6.0,12.0,69,0.00,,,0.00,meteohub,2013-03-08 20:28:00,
2013-03-08 14:33:00,55.4,45.3,28.57,East,90,11.0,12.0,69,0.00,,,0.00,meteohub,2013-03-08 20:33:00,
2013-03-08 14:38:00,55.0,45.5,28.56,NW,315,9.0,12.0,70,0.00,,,0.00,meteohub,2013-03-08 20:38:00,
2013-03-08 14:43:00,54.9,45.3,28.57,SE,135,11.0,12.0,70,0.00,,,0.00,meteohub,2013-03-08 20:43:00,
2013-03-08 14:48:00,55.0,45.9,28.56,NW,315,6.0,12.0,71,0.00,,,0.00,meteohub,2013-03-08 20:48:00,
2013-03-08 14:53:00,55.0,45.5,28.56,East,90,7.0,14.0,70,0.00,,,0.00,meteohub,2013-03-08 20:53:00,
2013-03-08 14:58:00,54.9,45.0,28.56,East,90,7.0,14.0,69,0.00,,,0.00,meteohub,2013-03-08 20:58:00,
2013-03-08 15:03:00,54.3,44.4,28.56,East,90,14.0,14.0,69,0.00,,,0.00,meteohub,2013-03-08 21:03:00,
2013-03-08 15:08:00,54.1,44.6,28.55,SE,135,15.0,15.0,70,0.00,,,0.00,meteohub,2013-03-08 21:08:00,
2013-03-08 15:13:00,54.1,45.0,28.55,South,180,6.0,14.0,71,0.00,,,0.00,meteohub,2013-03-08 21:13:00,
2013-03-08 15:18:00,54.1,44.6,28.55,North,0,11.0,15.0,70,0.00,,,0.00,meteohub,2013-03-08 21:18:00,
2013-03-08 15:23:00,54.0,44.4,28.55,SE,135,11.0,15.0,70,0.00,,,0.00,meteohub,2013-03-08 21:23:00,
2013-03-08 15:28:00,53.8,44.6,28.54,NW,315,8.0,15.0,71,0.00,,,0.00,meteohub,2013-03-08 21:28:00,
2013-03-08 15:33:00,53.4,44.2,28.54,SE,135,14.0,15.0,71,0.00,,,0.00,meteohub,2013-03-08 21:33:00,
2013-03-08 15:39:00,53.1,43.9,28.54,SE,135,12.0,15.0,71,0.00,,,0.00,meteohub,2013-03-08 21:39:00,
2013-03-08 15:44:00,52.9,43.7,28.54,SE,135,11.0,15.0,71,0.00,,,0.00,meteohub,2013-03-08 21:44:00,
2013-03-08 15:49:00,52.5,43.3,28.54,SE,135,13.0,15.0,71,0.00,,,0.00,meteohub,2013-03-08 21:49:00,
2013-03-08 15:54:00,52.5,43.7,28.53,South,180,11.0,15.0,72,0.00,,,0.00,meteohub,2013-03-08 21:54:00,
2013-03-08 15:59:00,52.3,43.5,28.54,SW,225,10.0,15.0,72,0.00,,,0.00,meteohub,2013-03-08 21:59:00,
2013-03-08 16:04:00,52.3,43.5,28.54,East,90,15.0,15.0,72,0.00,,,0.00,meteohub,2013-03-08 22:04:00,
2013-03-08 16:09:00,52.3,43.5,28.53,SE,135,11.0,15.0,72,0.00,,,0.00,meteohub,2013-03-08 22:09:00,
2013-03-08 16:14:00,52.3,43.5,28.53,SE,135,10.0,15.0,72,0.00,,,0.00,meteohub,2013-03-08 22:14:00,
2013-03-08 16:19:00,52.5,43.3,28.53,East,90,11.0,15.0,71,0.00,,,0.00,meteohub,2013-03-08 22:19:00,
2013-03-08 16:24:00,52.5,43.3,28.53,North,0,11.0,15.0,71,0.00,,,0.00,meteohub,2013-03-08 22:24:00,
2013-03-08 16:29:00,52.5,43.3,28.53,SE,135,7.0,15.0,71,0.00,,,0.00,meteohub,2013-03-08 22:29:00,
2013-03-08 16:34:00,52.5,43.3,28.52,SE,135,8.0,15.0,71,0.00,,,0.00,meteohub,2013-03-08 22:34:00,
2013-03-08 16:39:00,52.7,43.5,28.52,East,90,10.0,15.0,71,0.00,,,0.00,meteohub,2013-03-08 22:39:00,
2013-03-08 16:44:00,52.7,43.5,28.52,SE,135,11.0,17.0,71,0.00,,,0.00,meteohub,2013-03-08 22:44:00,
2013-03-08 16:49:00,52.7,43.5,28.52,East,90,8.0,17.0,71,0.00,,,0.00,meteohub,2013-03-08 22:49:00,
2013-03-08 16:55:00,52.7,43.5,28.51,SE,135,9.0,17.0,71,0.00,,,0.00,meteohub,2013-03-08 22:55:00,
2013-03-08 17:00:00,52.7,43.5,28.51,SE,135,11.0,16.0,71,0.00,,,0.00,meteohub,2013-03-08 23:00:00,
2013-03-08 17:05:00,52.5,43.3,28.51,SE,135,9.0,16.0,71,0.00,,,0.00,meteohub,2013-03-08 23:05:00,
2013-03-08 17:10:00,52.5,43.7,28.51,SE,135,8.0,14.0,72,0.00,,,0.00,meteohub,2013-03-08 23:10:00,
2013-03-08 17:15:00,52.3,43.5,28.51,East,90,12.0,13.0,72,0.00,,,0.00,meteohub,2013-03-08 23:15:00,
2013-03-08 17:20:00,52.3,43.5,28.51,West,270,11.0,16.0,72,0.00,,,0.00,meteohub,2013-03-08 23:20:00,
2013-03-08 17:25:00,52.3,43.5,28.51,SE,135,9.0,16.0,72,0.00,,,0.00,meteohub,2013-03-08 23:25:00,
2013-03-08 17:30:00,52.3,43.9,28.50,SE,135,11.0,16.0,73,0.00,,,0.00,meteohub,2013-03-08 23:30:00,
2013-03-08 17:35:00,52.2,43.7,28.51,East,90,9.0,16.0,73,0.00,,,0.00,meteohub,2013-03-08 23:35:00,
2013-03-08 17:40:00,52.0,43.5,28.51,SE,135,14.0,16.0,73,0.00,,,0.00,meteohub,2013-03-08 23:40:00,
2013-03-08 17:45:00,52.0,43.5,28.51,SE,135,10.0,15.0,73,0.00,,,0.00,meteohub,2013-03-08 23:45:00,
2013-03-08 17:50:00,51.8,43.7,28.51,SE,135,10.0,15.0,74,0.00,,,0.00,meteohub,2013-03-08 23:50:00,
2013-03-08 17:55:00,51.6,43.3,28.51,East,90,14.0,17.0,73,0.00,,,0.00,meteohub,2013-03-08 23:55:00,
2013-03-08 18:01:00,51.6,43.5,28.51,East,90,9.0,17.0,74,0.00,,,0.00,meteohub,2013-03-09 00:01:00,
2013-03-08 18:06:00,51.3,43.3,28.51,WNW,293,13.0,17.0,74,0.00,,,0.00,meteohub,2013-03-09 00:06:00,
2013-03-08 18:11:00,51.1,43.5,28.51,East,90,12.0,14.0,75,0.00,,,0.00,meteohub,2013-03-09 00:11:00,
2013-03-08 18:16:00,50.9,43.3,28.51,South,180,14.0,14.0,75,0.00,,,0.00,meteohub,2013-03-09 00:16:00,
2013-03-08 18:21:00,50.7,43.5,28.51,SE,135,12.0,14.0,76,0.00,,,0.00,meteohub,2013-03-09 00:21:00,
2013-03-08 18:26:00,50.5,43.3,28.51,NW,315,11.0,14.0,76,0.00,,,0.00,meteohub,2013-03-09 00:26:00,
2013-03-08 18:31:00,50.4,43.3,28.51,SE,135,8.0,14.0,77,0.00,,,0.00,meteohub,2013-03-09 00:31:00,
2013-03-08 18:36:00,50.4,43.3,28.51,East,90,8.0,12.0,77,0.00,,,0.00,meteohub,2013-03-09 00:36:00,
2013-03-08 18:41:00,50.2,43.3,28.52,East,90,8.0,11.0,77,0.00,,,0.00,meteohub,2013-03-09 00:41:00,
2013-03-08 18:46:00,50.2,43.5,28.51,SE,135,10.0,11.0,78,0.00,,,0.00,meteohub,2013-03-09 00:46:00,
2013-03-08 18:51:00,50.4,43.7,28.51,SE,135,8.0,10.0,78,0.00,,,0.00,meteohub,2013-03-09 00:51:00,
2013-03-08 18:56:00,50.4,43.7,28.51,SE,135,7.0,10.0,78,0.00,,,0.00,meteohub,2013-03-09 00:56:00,
2013-03-08 19:01:00,50.4,43.7,28.51,SE,135,7.0,10.0,78,0.00,,,0.00,meteohub,2013-03-09 01:01:00,
2013-03-08 19:06:00,50.5,43.9,28.52,SE,135,5.0,10.0,78,0.00,,,0.00,meteohub,2013-03-09 01:06:00,
2013-03-08 19:11:00,50.5,43.9,28.52,East,90,7.0,9.0,78,0.00,,,0.00,meteohub,2013-03-09 01:11:00,
2013-03-08 19:16:00,50.5,43.9,28.51,SE,135,4.0,8.0,78,0.00,,,0.00,meteohub,2013-03-09 01:16:00,
2013-03-08 19:21:00,50.5,44.2,28.51,South,180,4.0,8.0,79,0.00,,,0.00,meteohub,2013-03-09 01:21:00,
2013-03-08 19:26:00,50.7,44.1,28.51,South,180,4.0,8.0,78,0.00,,,0.00,meteohub,2013-03-09 01:26:00,
2013-03-08 19:32:00,50.9,44.2,28.51,East,90,5.0,7.0,78,0.00,,,0.00,meteohub,2013-03-09 01:32:00,
2013-03-08 19:37:00,51.1,44.1,28.51,SE,135,5.0,7.0,77,0.00,,,0.00,meteohub,2013-03-09 01:37:00,
2013-03-08 19:42:00,51.3,44.2,28.51,South,180,6.0,8.0,77,0.00,,,0.00,meteohub,2013-03-09 01:42:00,
2013-03-08 19:47:00,51.3,44.2,28.51,SE,135,8.0,8.0,77,0.00,,,0.00,meteohub,2013-03-09 01:47:00,
2013-03-08 19:52:00,51.8,44.4,28.51,South,180,11.0,11.0,76,0.00,,,0.00,meteohub,2013-03-09 01:52:00,
2013-03-08 19:57:00,52.0,44.2,28.51,South,180,6.0,15.0,75,0.00,,,0.00,meteohub,2013-03-09 01:57:00,
2013-03-08 20:02:00,52.0,43.9,28.50,South,180,6.0,15.0,74,0.00,,,0.00,meteohub,2013-03-09 02:02:00,
2013-03-08 20:07:00,52.2,44.1,28.51,East,90,7.0,15.0,74,0.00,,,0.00,meteohub,2013-03-09 02:07:00,
2013-03-08 20:12:00,52.2,44.1,28.51,NNW,338,7.0,14.0,74,0.00,,,0.00,meteohub,2013-03-09 02:12:00,
2013-03-08 20:17:00,52.3,43.9,28.51,East,90,6.0,14.0,73,0.00,,,0.00,meteohub,2013-03-09 02:17:00,
2013-03-08 20:22:00,52.3,43.9,28.50,South,180,10.0,14.0,73,0.00,,,0.00,meteohub,2013-03-09 02:22:00,
2013-03-08 20:27:00,52.3,43.9,28.51,West,270,9.0,12.0,73,0.00,,,0.00,meteohub,2013-03-09 02:27:00,
2013-03-08 20:32:00,52.2,43.7,28.51,NNE,23,9.0,11.0,73,0.00,,,0.00,meteohub,2013-03-09 02:32:00,
2013-03-08 20:37:00,52.2,43.7,28.51,SE,135,9.0,11.0,73,0.00,,,0.00,meteohub,2013-03-09 02:37:00,
2013-03-08 20:43:00,52.0,43.9,28.51,SE,135,10.0,11.0,74,0.00,,,0.00,meteohub,2013-03-09 02:43:00,
2013-03-08 20:48:00,52.0,43.9,28.51,SE,135,8.0,12.0,74,0.00,,,0.00,meteohub,2013-03-09 02:48:00,
2013-03-08 20:53:00,52.0,43.9,28.51,South,180,6.0,12.0,74,0.00,,,0.00,meteohub,2013-03-09 02:53:00,
2013-03-08 20:58:00,52.0,43.5,28.50,East,90,7.0,11.0,73,0.00,,,0.00,meteohub,2013-03-09 02:58:00,
2013-03-08 21:03:00,52.0,43.5,28.51,West,270,8.0,13.0,73,0.00,,,0.00,meteohub,2013-03-09 03:03:00,
2013-03-08 21:08:00,52.0,43.5,28.51,SE,135,8.0,15.0,73,0.00,,,0.00,meteohub,2013-03-09 03:08:00,
2013-03-08 21:13:00,52.0,43.2,28.51,SE,135,8.0,15.0,72,0.00,,,0.00,meteohub,2013-03-09 03:13:00,
2013-03-08 21:18:00,52.0,43.5,28.51,South,180,7.0,15.0,73,0.00,,,0.00,meteohub,2013-03-09 03:18:00,
2013-03-08 21:23:00,51.8,43.3,28.51,NW,315,8.0,12.0,73,0.00,,,0.00,meteohub,2013-03-09 03:23:00,
2013-03-08 21:28:00,51.8,43.3,28.51,SE,135,9.0,12.0,73,0.00,,,0.00,meteohub,2013-03-09 03:28:00,
2013-03-08 21:33:00,51.8,43.3,28.51,North,0,7.0,15.0,73,0.00,,,0.00,meteohub,2013-03-09 03:33:00,
2013-03-08 21:38:00,51.8,43.3,28.51,South,180,10.0,15.0,73,0.00,,,0.00,meteohub,2013-03-09 03:38:00,
2013-03-08 21:43:00,51.8,43.3,28.50,South,180,8.0,15.0,73,0.00,,,0.00,meteohub,2013-03-09 03:43:00,
2013-03-08 21:48:00,51.6,43.3,28.50,SW,225,6.0,11.0,73,0.00,,,0.00,meteohub,2013-03-09 03:48:00,
2013-03-08 21:53:00,51.4,43.5,28.51,South,180,4.0,11.0,74,0.00,,,0.00,meteohub,2013-03-09 03:53:00,
2013-03-08 21:59:00,51.3,43.3,28.50,East,90,13.0,13.0,74,0.00,,,0.00,meteohub,2013-03-09 03:59:00,
2013-03-08 22:04:00,51.3,43.5,28.51,SE,135,8.0,13.0,75,0.00,,,0.00,meteohub,2013-03-09 04:04:00,
2013-03-08 22:09:00,51.1,43.5,28.51,SW,225,6.0,13.0,75,0.00,,,0.00,meteohub,2013-03-09 04:09:00,
2013-03-08 22:14:00,50.9,43.5,28.50,SE,135,13.0,13.0,76,0.00,,,0.00,meteohub,2013-03-09 04:14:00,
2013-03-08 22:19:00,50.5,43.9,28.50,SE,135,12.0,13.0,78,0.00,,,0.00,meteohub,2013-03-09 04:19:00,
2013-03-08 22:24:00,50.4,44.1,28.49,SE,135,6.0,13.0,79,0.00,,,0.00,meteohub,2013-03-09 04:24:00,
2013-03-08 22:29:00,50.4,44.1,28.50,South,180,4.0,13.0,79,0.00,,,0.00,meteohub,2013-03-09 04:29:00,
2013-03-08 22:34:00,50.2,43.9,28.49,SE,135,8.0,12.0,79,0.00,,,0.00,meteohub,2013-03-09 04:34:00,
2013-03-08 22:39:00,50.2,44.2,28.48,SE,135,8.0,11.0,80,0.00,,,0.00,meteohub,2013-03-09 04:39:00,
2013-03-08 22:44:00,50.0,44.4,28.48,South,180,6.0,10.0,81,0.00,,,0.00,meteohub,2013-03-09 04:44:00,
2013-03-08 22:49:00,49.8,44.6,28.48,SE,135,7.0,10.0,82,0.00,,,0.00,meteohub,2013-03-09 04:49:00,
2013-03-08 22:54:00,49.5,44.8,28.48,NNE,23,9.0,10.0,84,0.00,,,0.00,meteohub,2013-03-09 04:54:00,
2013-03-08 22:59:00,49.1,44.8,28.48,SW,225,8.0,10.0,85,0.00,,,0.00,meteohub,2013-03-09 04:59:00,
2013-03-08 23:00:00,49.1,44.8,28.48,SE,135,8.0,10.0,85,0.00,,,0.00,meteohub,2013-03-09 05:00:00,
2013-03-08 23:01:00,49.1,44.8,28.48,SE,135,4.0,10.0,85,0.00,,,0.00,meteohub,2013-03-09 05:01:00,
2013-03-08 23:02:00,49.1,44.8,28.48,South,180,8.0,10.0,85,0.00,,,0.00,meteohub,2013-03-09 05:02:00,
2013-03-08 23:06:00,49.1,44.8,28.48,SE,135,7.0,9.0,85,0.00,,,0.00,meteohub,2013-03-09 05:06:00,
2013-03-08 23:11:00,49.1,44.4,28.48,West,270,7.0,8.0,84,0.00,,,0.00,meteohub,2013-03-09 05:11:00,
2013-03-08 23:16:00,49.3,44.4,28.48,SW,225,11.0,11.0,83,0.00,,,0.00,meteohub,2013-03-09 05:16:00,
2013-03-08 23:21:00,49.3,44.4,28.48,West,270,8.0,11.0,83,0.00,,,0.00,meteohub,2013-03-09 05:21:00,
2013-03-08 23:26:00,49.3,44.4,28.47,South,180,6.0,11.0,83,0.00,,,0.00,meteohub,2013-03-09 05:26:00,
2013-03-08 23:31:00,49.5,44.6,28.46,East,90,9.0,11.0,83,0.00,,,0.00,meteohub,2013-03-09 05:31:00,
2013-03-08 23:36:00,49.5,44.6,28.46,NW,315,10.0,15.0,83,0.00,,,0.00,meteohub,2013-03-09 05:36:00,
2013-03-08 23:42:00,49.5,44.2,28.45,SE,135,7.0,15.0,82,0.00,,,0.00,meteohub,2013-03-09 05:42:00,
2013-03-08 23:47:00,49.5,44.2,28.45,East,90,8.0,15.0,82,0.00,,,0.00,meteohub,2013-03-09 05:47:00,
2013-03-08 23:52:00,49.5,44.6,28.45,South,180,10.0,13.0,83,0.00,,,0.00,meteohub,2013-03-09 05:52:00,
2013-03-08 23:57:00,49.5,44.2,28.45,West,270,11.0,11.0,82,0.00,,,0.00,meteohub,2013-03-09 05:57:00,